createdAt,value
2018-08-16T00:01:51.930Z,3.73
2018-08-16T00:04:20.003Z,4.43
2018-08-16T00:06:48.130Z,4.07
2018-08-16T00:09:16.211Z,4.13
2018-08-16T00:11:44.308Z,4.17
2018-08-16T00:14:12.436Z,3.97
2018-08-16T00:16:40.529Z,4.60
2018-08-16T00:19:08.599Z,4.17
2018-08-16T00:21:36.691Z,3.93
2018-08-16T00:24:04.774Z,4.10
2018-08-16T00:26:32.915Z,4.53
2018-08-16T00:29:01.012Z,5.03
2018-08-16T00:31:29.108Z,4.40
2018-08-16T00:33:57.204Z,4.50
2018-08-16T00:36:25.291Z,4.03
2018-08-16T00:38:53.380Z,4.50
2018-08-16T00:41:21.459Z,4.33
2018-08-16T00:43:49.551Z,4.00
2018-08-16T00:46:17.642Z,3.90
2018-08-16T00:48:45.828Z,4.47
2018-08-16T00:51:13.903Z,4.13
2018-08-16T00:53:41.980Z,4.00
2018-08-16T00:56:10.069Z,3.87
2018-08-16T00:58:38.160Z,4.20
2018-08-16T01:01:06.253Z,3.93
2018-08-16T01:03:34.431Z,3.97
2018-08-16T01:06:02.596Z,4.53
2018-08-16T01:08:30.776Z,4.17
2018-08-16T01:10:58.850Z,4.60
2018-08-16T01:13:26.920Z,4.20
2018-08-16T01:15:55.092Z,3.80
2018-08-16T01:18:23.187Z,4.00
2018-08-16T01:20:51.281Z,3.93
2018-08-16T01:23:19.364Z,4.87
2018-08-16T01:25:47.435Z,4.30
2018-08-16T01:28:15.503Z,4.20
2018-08-16T01:30:43.578Z,5.03
2018-08-16T01:33:11.667Z,4.40
2018-08-16T01:35:39.810Z,3.90
2018-08-16T01:38:07.796Z,4.57
2018-08-16T01:40:35.848Z,4.60
2018-08-16T01:43:03.917Z,4.97
2018-08-16T01:45:32.037Z,4.00
2018-08-16T01:48:00.133Z,4.80
2018-08-16T01:50:28.192Z,4.57
2018-08-16T01:52:56.263Z,5.23
2018-08-16T01:55:24.348Z,5.03
2018-08-16T01:57:58.988Z,4.77
2018-08-16T02:00:27.050Z,5.33
2018-08-16T02:02:55.126Z,4.27
2018-08-16T02:05:23.193Z,4.53
2018-08-16T02:07:51.324Z,5.30
2018-08-16T02:10:19.444Z,4.60
2018-08-16T02:12:47.564Z,4.17
2018-08-16T02:15:15.614Z,5.33
2018-08-16T02:17:43.679Z,4.57
2018-08-16T02:20:13.476Z,7.00
2018-08-16T02:22:41.984Z,6.50
2018-08-16T02:25:10.071Z,5.87
2018-08-16T02:27:38.131Z,6.77
2018-08-16T02:30:06.547Z,5.93
2018-08-16T02:32:34.620Z,5.53
2018-08-16T02:35:02.783Z,4.60
2018-08-16T02:37:31.065Z,6.17
2018-08-16T02:39:59.163Z,7.30
2018-08-16T02:42:27.276Z,7.17
2018-08-16T02:44:55.420Z,7.20
2018-08-16T02:47:23.523Z,8.17
2018-08-16T02:49:51.596Z,7.10
2018-08-16T02:52:19.657Z,7.53
2018-08-16T02:54:47.763Z,7.03
2018-08-16T02:57:15.837Z,6.70
2018-08-16T02:59:44.056Z,7.63
2018-08-16T03:02:12.141Z,7.00
2018-08-16T03:04:40.201Z,6.37
2018-08-16T03:07:08.277Z,6.60
2018-08-16T03:09:36.371Z,4.27
2018-08-16T03:12:04.481Z,5.00
2018-08-16T03:14:32.597Z,4.43
2018-08-16T03:17:00.671Z,4.50
2018-08-16T03:19:28.751Z,4.70
2018-08-16T03:21:56.825Z,4.20
2018-08-16T03:24:24.903Z,4.87
2018-08-16T03:26:52.963Z,4.80
2018-08-16T03:29:21.051Z,5.40
2018-08-16T03:31:49.156Z,4.23
2018-08-16T03:34:17.229Z,4.33
2018-08-16T03:36:45.379Z,4.40
2018-08-16T03:39:13.521Z,5.50
2018-08-16T03:41:41.603Z,4.90
2018-08-16T03:44:09.683Z,4.53
2018-08-16T03:46:37.739Z,4.67
2018-08-16T03:49:06.035Z,4.90
2018-08-16T03:54:08.438Z,5.00
2018-08-16T03:56:36.519Z,5.07
2018-08-16T03:59:04.600Z,6.00
2018-08-16T04:01:32.662Z,5.10
2018-08-16T04:04:00.762Z,7.47
2018-08-16T04:06:28.819Z,5.00
2018-08-16T04:08:56.941Z,5.10
2018-08-16T04:11:25.010Z,5.70
2018-08-16T04:13:53.095Z,5.50
2018-08-16T04:16:21.207Z,8.80
2018-08-16T04:18:49.280Z,9.70
2018-08-16T04:21:17.335Z,8.07
2018-08-16T04:23:45.460Z,6.50
2018-08-16T04:26:13.545Z,7.93
2018-08-16T04:28:41.607Z,7.80
2018-08-16T04:31:09.687Z,9.27
2018-08-16T04:33:37.777Z,8.70
2018-08-16T04:36:05.833Z,7.30
2018-08-16T04:38:33.930Z,8.60
2018-08-16T04:41:02.015Z,7.37
2018-08-16T04:43:30.112Z,8.37
2018-08-16T04:45:58.174Z,10.73
2018-08-16T04:48:26.265Z,7.50
2018-08-16T04:50:54.320Z,7.50
2018-08-16T04:53:22.416Z,7.97
2018-08-16T04:55:50.477Z,7.07
2018-08-16T04:58:18.561Z,5.23
2018-08-16T05:00:46.737Z,7.27
2018-08-16T05:03:14.831Z,8.07
2018-08-16T05:05:42.910Z,8.10
2018-08-16T05:08:11.016Z,7.80
2018-08-16T05:10:39.188Z,8.53
2018-08-16T05:13:07.269Z,8.30
2018-08-16T05:15:35.335Z,7.90
2018-08-16T05:18:03.409Z,7.43
2018-08-16T05:20:37.910Z,8.27
2018-08-16T05:23:05.999Z,7.27
2018-08-16T05:25:34.072Z,7.73
2018-08-16T05:28:02.200Z,8.33
2018-08-16T05:30:30.348Z,8.80
2018-08-16T05:32:58.460Z,8.30
2018-08-16T05:35:26.589Z,8.00
2018-08-16T05:37:54.688Z,7.47
2018-08-16T05:40:22.775Z,7.83
2018-08-16T05:42:50.954Z,7.60
2018-08-16T05:45:19.064Z,7.53
2018-08-16T05:47:47.132Z,8.57
2018-08-16T05:50:15.281Z,8.17
2018-08-16T05:52:43.409Z,9.40
2018-08-16T05:55:11.495Z,8.17
2018-08-16T05:57:39.780Z,8.10
2018-08-16T06:00:10.188Z,7.77
2018-08-16T06:02:39.155Z,8.53
2018-08-16T06:05:08.111Z,9.23
2018-08-16T06:07:36.645Z,7.80
2018-08-16T06:10:05.746Z,7.60
2018-08-16T06:12:33.915Z,8.47
2018-08-16T06:15:02.084Z,8.00
2018-08-16T06:17:30.257Z,8.03
2018-08-16T06:19:58.417Z,8.63
2018-08-16T06:22:32.940Z,7.10
2018-08-16T06:25:01.068Z,7.60
2018-08-16T06:27:29.160Z,7.00
2018-08-16T06:29:57.542Z,7.60
2018-08-16T06:32:25.679Z,7.70
2018-08-16T06:34:53.788Z,7.67
2018-08-16T06:37:21.896Z,9.13
2018-08-16T06:39:50.085Z,7.97
2018-08-16T06:42:18.200Z,8.37
2018-08-16T06:44:46.337Z,8.40
2018-08-16T06:47:16.941Z,9.33
2018-08-16T06:49:46.111Z,8.37
2018-08-16T06:52:14.449Z,9.20
2018-08-16T06:54:42.572Z,8.83
2018-08-16T06:57:10.709Z,10.37
2018-08-16T06:59:38.826Z,9.37
2018-08-16T07:02:06.995Z,8.60
2018-08-16T07:04:35.195Z,9.73
2018-08-16T07:07:03.312Z,8.30
2018-08-16T07:09:31.405Z,8.10
2018-08-16T07:11:59.625Z,8.30
2018-08-16T07:14:27.626Z,9.00
2018-08-16T07:16:55.912Z,8.97
2018-08-16T07:19:24.008Z,9.60
2018-08-16T07:21:52.589Z,8.63
2018-08-16T07:24:20.722Z,8.77
2018-08-16T07:26:48.771Z,7.47
2018-08-16T07:29:16.880Z,8.23
2018-08-16T07:31:45.027Z,8.20
2018-08-16T07:34:13.103Z,8.90
2018-08-16T07:36:41.197Z,7.83
2018-08-16T07:39:10.436Z,7.60
2018-08-16T07:41:38.826Z,8.63
2018-08-16T07:44:07.060Z,7.83
2018-08-16T07:46:35.252Z,8.60
2018-08-16T07:49:03.409Z,7.77
2018-08-16T07:51:31.656Z,7.73
2018-08-16T07:53:59.649Z,6.53
2018-08-16T07:56:27.749Z,6.30
2018-08-16T07:58:55.901Z,6.80
2018-08-16T08:01:24.035Z,7.00
2018-08-16T08:03:52.271Z,7.20
2018-08-16T08:06:20.450Z,6.93
2018-08-16T08:08:48.606Z,7.73
2018-08-16T08:11:16.699Z,7.17
2018-08-16T08:13:45.457Z,6.87
2018-08-16T08:16:20.129Z,6.83
2018-08-16T08:18:48.248Z,6.50
2018-08-16T08:21:16.449Z,7.40
2018-08-16T08:23:44.564Z,6.20
2018-08-16T08:26:12.643Z,6.93
2018-08-16T08:28:40.740Z,7.07
2018-08-16T08:31:08.824Z,6.50
2018-08-16T08:33:36.921Z,6.90
2018-08-16T08:36:16.323Z,7.07
2018-08-16T08:38:44.497Z,6.50
2018-08-16T08:41:12.603Z,6.73
2018-08-16T08:43:51.916Z,5.37
2018-08-16T08:46:20.019Z,5.77
2018-08-16T08:48:48.101Z,6.70
2018-08-16T08:51:16.204Z,5.67
2018-08-16T08:54:55.816Z,5.73
2018-08-16T08:57:35.953Z,6.10
2018-08-16T09:00:04.796Z,4.67
2018-08-16T09:02:32.939Z,5.13
2018-08-16T09:05:01.128Z,5.30
2018-08-16T09:07:29.267Z,4.83
2018-08-16T09:11:36.120Z,4.40
2018-08-16T09:14:15.744Z,4.00
2018-08-16T09:16:43.876Z,4.10
2018-08-16T09:19:12.335Z,4.43
2018-08-16T09:21:40.428Z,3.80
2018-08-16T09:24:08.542Z,4.40
2018-08-16T09:26:40.771Z,4.87
2018-08-16T09:29:20.285Z,4.00
2018-08-16T09:34:06.334Z,4.33
2018-08-16T09:36:34.411Z,3.23
2018-08-16T09:39:02.497Z,4.07
2018-08-16T09:41:30.603Z,3.70
2018-08-16T09:43:58.704Z,3.23
2018-08-16T09:47:07.892Z,3.83
2018-08-16T09:49:38.656Z,3.77
2018-08-16T09:52:07.475Z,3.07
2018-08-16T09:54:35.623Z,2.90
2018-08-16T09:57:05.030Z,3.00
2018-08-16T09:59:33.116Z,3.10
2018-08-16T10:02:01.301Z,3.60
2018-08-16T10:04:29.636Z,2.63
2018-08-16T10:06:57.816Z,2.80
2018-08-16T10:09:28.044Z,3.03
2018-08-16T10:11:56.915Z,2.70
2018-08-16T10:14:26.167Z,2.53
2018-08-16T10:16:54.315Z,3.23
2018-08-16T10:19:22.992Z,2.60
2018-08-16T10:21:51.119Z,3.50
2018-08-16T10:24:19.216Z,2.50
2018-08-16T10:26:47.357Z,2.47
2018-08-16T10:29:15.451Z,2.80
2018-08-16T10:31:43.551Z,2.30
2018-08-16T10:34:11.789Z,3.00
2018-08-16T10:36:39.987Z,3.13
2018-08-16T10:39:11.743Z,2.57
2018-08-16T10:41:39.843Z,2.60
2018-08-16T10:44:08.071Z,3.00
2018-08-16T10:46:36.245Z,2.73
2018-08-16T10:49:04.388Z,2.20
2018-08-16T10:51:32.507Z,2.50
2018-08-16T10:54:00.600Z,2.57
2018-08-16T10:56:28.736Z,2.53
2018-08-16T10:58:56.876Z,2.30
2018-08-16T11:01:25.097Z,2.40
2018-08-16T11:03:53.170Z,2.50
2018-08-16T11:06:21.292Z,2.50
2018-08-16T11:08:49.373Z,2.20
2018-08-16T11:11:17.462Z,2.33
2018-08-16T11:13:45.559Z,2.30
2018-08-16T11:16:20.271Z,2.20
2018-08-16T11:18:48.393Z,2.23
2018-08-16T11:21:16.468Z,2.20
2018-08-16T11:23:44.576Z,2.37
2018-08-16T11:26:12.675Z,2.40
2018-08-16T11:28:40.794Z,2.00
2018-08-16T11:31:08.882Z,2.50
2018-08-16T11:33:36.995Z,2.07
2018-08-16T11:36:05.107Z,2.40
2018-08-16T11:38:33.211Z,2.40
2018-08-16T11:41:01.303Z,1.90
2018-08-16T11:43:29.403Z,2.33
2018-08-16T11:45:57.509Z,1.87
2018-08-16T11:48:25.616Z,2.07
2018-08-16T11:50:53.703Z,2.40
2018-08-16T11:53:21.833Z,2.30
2018-08-16T11:55:49.928Z,1.90
2018-08-16T11:58:18.062Z,1.97
2018-08-16T12:00:46.231Z,2.17
2018-08-16T12:03:14.352Z,2.20
2018-08-16T12:05:42.435Z,1.90
2018-08-16T12:08:10.522Z,2.23
2018-08-16T12:10:38.627Z,2.50
2018-08-16T12:13:06.766Z,2.00
2018-08-16T12:15:35.012Z,1.97
2018-08-16T12:18:03.100Z,2.10
2018-08-16T12:20:31.240Z,1.90
2018-08-16T12:22:59.356Z,1.87
2018-08-16T12:25:27.488Z,2.30
2018-08-16T12:27:55.683Z,1.90
2018-08-16T12:30:23.843Z,2.23
2018-08-16T12:32:51.995Z,1.53
2018-08-16T12:35:20.151Z,1.93
2018-08-16T12:37:48.384Z,2.30
2018-08-16T12:40:16.538Z,2.00
2018-08-16T12:42:44.660Z,2.27
2018-08-16T12:45:12.788Z,2.43
2018-08-16T12:47:41.005Z,1.90
2018-08-16T12:50:09.999Z,1.93
2018-08-16T12:52:38.116Z,1.90
2018-08-16T12:55:06.248Z,1.77
2018-08-16T12:57:34.541Z,2.40
2018-08-16T13:00:02.740Z,2.20
2018-08-16T13:02:30.832Z,1.80
2018-08-16T13:04:59.029Z,1.83
2018-08-16T13:07:27.154Z,2.23
2018-08-16T13:09:55.222Z,2.17
2018-08-16T13:12:23.305Z,2.10
2018-08-16T13:14:51.435Z,2.10
2018-08-16T13:17:19.475Z,1.80
2018-08-16T13:19:47.584Z,2.10
2018-08-16T13:22:15.663Z,2.30
2018-08-16T13:24:43.724Z,1.77
2018-08-16T13:27:11.845Z,2.10
2018-08-16T13:29:39.972Z,1.87
2018-08-16T13:32:08.056Z,1.67
2018-08-16T13:34:36.288Z,2.03
2018-08-16T13:37:04.360Z,1.57
2018-08-16T13:39:32.560Z,2.00
2018-08-16T13:42:00.645Z,2.00
2018-08-16T13:44:28.704Z,2.10
2018-08-16T13:46:56.795Z,1.73
2018-08-16T13:49:24.881Z,2.17
2018-08-16T13:51:52.947Z,2.33
2018-08-16T13:54:21.011Z,1.87
2018-08-16T13:56:49.088Z,1.77
2018-08-16T13:59:17.223Z,2.20
2018-08-16T14:01:45.289Z,2.07
2018-08-16T14:04:13.363Z,2.30
2018-08-16T14:06:41.439Z,1.93
2018-08-16T14:09:10.596Z,2.23
2018-08-16T14:11:38.696Z,1.83
2018-08-16T14:14:06.797Z,2.03
2018-08-16T14:16:34.874Z,2.00
2018-08-16T14:19:02.945Z,1.93
2018-08-16T14:21:31.115Z,1.97
2018-08-16T14:23:59.174Z,2.40
2018-08-16T14:26:27.262Z,4.20
2018-08-16T14:28:55.315Z,2.00
2018-08-16T14:31:23.379Z,1.83
2018-08-16T14:33:51.860Z,2.30
2018-08-16T14:36:20.176Z,1.80
2018-08-16T14:38:50.322Z,1.83
2018-08-16T14:41:22.113Z,2.13
2018-08-16T14:43:51.109Z,2.50
2018-08-16T14:46:24.103Z,2.50
2018-08-16T14:48:53.882Z,2.03
2018-08-16T14:51:23.099Z,2.30
2018-08-16T14:53:51.439Z,2.33
2018-08-16T14:56:20.781Z,2.53
2018-08-16T14:58:49.215Z,2.50
2018-08-16T15:01:17.734Z,1.83
2018-08-16T15:03:46.333Z,1.87
2018-08-16T15:06:15.354Z,2.40
2018-08-16T15:08:43.419Z,1.90
2018-08-16T15:11:11.605Z,2.10
2018-08-16T15:13:39.747Z,1.73
2018-08-16T15:16:07.879Z,1.60
2018-08-16T15:18:35.943Z,2.00
2018-08-16T15:21:04.286Z,1.73
2018-08-16T15:23:32.656Z,1.90
2018-08-16T15:26:01.962Z,1.97
2018-08-16T15:28:36.798Z,2.17
2018-08-16T15:31:06.188Z,2.13
2018-08-16T15:33:35.389Z,1.90
2018-08-16T15:36:04.272Z,2.00
2018-08-16T15:38:33.066Z,2.60
2018-08-16T15:41:01.687Z,2.20
2018-08-16T15:43:30.157Z,2.17
2018-08-16T15:46:00.111Z,2.37
2018-08-16T15:48:29.783Z,1.97
2018-08-16T15:53:50.372Z,2.00
2018-08-16T15:56:18.427Z,2.10
2018-08-16T15:58:46.491Z,1.63
2018-08-16T16:01:14.592Z,2.40
2018-08-16T16:03:42.666Z,2.00
2018-08-16T16:06:10.847Z,2.47
2018-08-16T16:08:38.816Z,2.60
2018-08-16T16:11:07.710Z,2.40
2018-08-16T16:13:38.417Z,2.10
2018-08-16T16:16:06.486Z,1.93
2018-08-16T16:18:34.572Z,2.07
2018-08-16T16:21:02.628Z,2.77
2018-08-16T16:23:31.210Z,3.07
2018-08-16T16:25:59.455Z,2.20
2018-08-16T16:28:27.573Z,2.53
2018-08-16T16:30:55.799Z,2.93
2018-08-16T16:33:33.343Z,2.33
2018-08-16T16:36:01.415Z,14.40
2018-08-16T16:38:29.630Z,7.00
2018-08-16T16:40:57.670Z,12.87
2018-08-16T16:43:25.773Z,3.27
2018-08-16T16:45:53.847Z,1.93
2018-08-16T16:48:22.052Z,2.53
2018-08-16T16:50:50.134Z,2.20
2018-08-16T16:53:18.256Z,2.50
2018-08-16T16:55:46.388Z,1.93
2018-08-16T16:58:14.458Z,2.10
2018-08-16T17:00:42.528Z,2.43
2018-08-16T17:03:10.596Z,2.23
2018-08-16T17:05:38.742Z,2.30
2018-08-16T17:08:06.845Z,2.30
2018-08-16T17:10:34.973Z,2.53
2018-08-16T17:13:03.007Z,2.00
2018-08-16T17:15:31.917Z,2.43
2018-08-16T17:18:00.171Z,2.33
2018-08-16T17:20:28.235Z,2.10
2018-08-16T17:22:56.300Z,2.80
2018-08-16T17:25:24.352Z,3.00
2018-08-16T17:27:52.431Z,2.50
2018-08-16T17:30:20.504Z,2.80
2018-08-16T17:32:48.579Z,2.83
2018-08-16T17:35:16.641Z,2.30
2018-08-16T17:37:44.735Z,2.40
2018-08-16T17:40:12.791Z,2.30
2018-08-16T17:42:40.903Z,2.40
2018-08-16T17:45:08.963Z,2.23
2018-08-16T17:47:37.056Z,2.63
2018-08-16T17:50:05.995Z,3.60
2018-08-16T17:52:34.390Z,2.37
2018-08-16T17:55:02.988Z,2.60
2018-08-16T17:57:32.118Z,2.53
2018-08-16T18:00:00.354Z,2.80
2018-08-16T18:02:28.683Z,2.60
2018-08-16T18:04:57.343Z,2.63
2018-08-16T18:07:25.523Z,2.50
2018-08-16T18:09:53.712Z,2.90
2018-08-16T18:12:22.938Z,3.30
2018-08-16T18:14:51.106Z,2.17
2018-08-16T18:17:19.298Z,2.67
2018-08-16T18:19:47.714Z,2.37
2018-08-16T18:22:15.855Z,2.53
2018-08-16T18:24:44.117Z,3.20
2018-08-16T18:27:12.880Z,2.90
2018-08-16T18:29:41.469Z,2.97
2018-08-16T18:32:09.752Z,3.10
2018-08-16T18:34:38.002Z,2.80
2018-08-16T18:37:06.265Z,2.57
2018-08-16T18:39:34.479Z,2.53
2018-08-16T18:42:03.058Z,3.00
2018-08-16T18:44:31.587Z,2.57
2018-08-16T18:47:00.459Z,3.00
2018-08-16T18:49:28.959Z,3.00
2018-08-16T18:51:57.128Z,2.30
2018-08-16T18:54:25.326Z,2.77
2018-08-16T18:56:53.508Z,2.63
2018-08-16T18:59:21.641Z,2.90
2018-08-16T19:01:49.748Z,2.43
2018-08-16T19:04:18.118Z,2.33
2018-08-16T19:06:46.292Z,2.47
2018-08-16T19:09:15.438Z,2.67
2018-08-16T19:11:46.814Z,2.60
2018-08-16T19:14:16.997Z,2.70
2018-08-16T19:16:46.993Z,2.73
2018-08-16T19:19:15.715Z,2.30
2018-08-16T19:21:43.958Z,2.30
2018-08-16T19:24:13.249Z,3.30
2018-08-16T19:26:41.694Z,4.33
2018-08-16T19:29:09.947Z,4.20
2018-08-16T19:31:38.208Z,4.20
2018-08-16T19:34:06.544Z,3.50
2018-08-16T19:36:34.752Z,4.07
2018-08-16T19:39:03.054Z,3.57
2018-08-16T19:41:31.298Z,4.17
2018-08-16T19:43:59.460Z,4.40
2018-08-16T19:46:27.643Z,4.20
2018-08-16T19:48:55.848Z,3.90
2018-08-16T19:51:24.639Z,3.23
2018-08-16T19:53:52.889Z,3.90
2018-08-16T19:56:21.114Z,3.67
2018-08-16T19:58:49.785Z,3.30
2018-08-16T20:01:18.972Z,4.27
2018-08-16T20:03:47.711Z,3.43
2018-08-16T20:06:15.950Z,4.53
2018-08-16T20:08:44.136Z,5.13
2018-08-16T20:11:12.379Z,5.77
2018-08-16T20:13:40.444Z,4.90
2018-08-16T20:16:08.507Z,4.30
2018-08-16T20:18:36.672Z,5.47
2018-08-16T20:21:05.056Z,4.33
2018-08-16T20:23:33.244Z,4.70
2018-08-16T20:26:01.603Z,5.63
2018-08-16T20:28:29.899Z,5.00
2018-08-16T20:30:58.291Z,4.13
2018-08-16T20:33:26.560Z,4.00
2018-08-16T20:35:54.860Z,4.53
2018-08-16T20:38:23.306Z,3.53
2018-08-16T20:40:51.490Z,4.30
2018-08-16T20:43:19.771Z,3.63
2018-08-16T20:45:47.980Z,3.73
2018-08-16T20:48:48.635Z,4.07
2018-08-16T20:51:17.752Z,3.77
2018-08-16T20:53:45.954Z,3.30
2018-08-16T20:56:14.225Z,3.57
2018-08-16T20:58:42.463Z,3.70
2018-08-16T21:01:10.706Z,4.00
2018-08-16T21:03:39.889Z,3.87
2018-08-16T21:06:08.526Z,4.37
2018-08-16T21:08:36.720Z,4.40
2018-08-16T21:11:04.909Z,3.80
2018-08-16T21:13:33.153Z,3.50
2018-08-16T21:16:01.381Z,3.67
2018-08-16T21:18:29.752Z,3.63
2018-08-16T21:20:58.171Z,3.20
2018-08-16T21:23:26.313Z,3.93
2018-08-16T21:25:54.547Z,3.57
2018-08-16T21:31:01.700Z,3.90
2018-08-16T21:33:30.000Z,3.20
2018-08-16T21:35:58.310Z,3.20
2018-08-16T21:38:26.706Z,3.50
2018-08-16T21:40:54.889Z,3.40
2018-08-16T21:43:23.201Z,3.37
2018-08-16T21:45:51.464Z,4.07
2018-08-16T21:48:19.695Z,3.80
2018-08-16T21:50:48.034Z,3.67
2018-08-16T21:53:16.249Z,3.00
2018-08-16T21:55:44.589Z,3.50
2018-08-16T21:58:12.907Z,3.10
2018-08-16T22:00:52.489Z,3.73
2018-08-16T22:03:23.926Z,3.13
2018-08-16T22:05:54.890Z,3.53
2018-08-16T22:08:23.555Z,3.90
2018-08-16T22:10:51.877Z,3.50
2018-08-16T22:13:19.992Z,3.87
2018-08-16T22:15:48.046Z,3.73
2018-08-16T22:18:16.099Z,3.50
2018-08-16T22:20:44.160Z,3.50
2018-08-16T22:23:12.217Z,3.90
2018-08-16T22:25:40.299Z,3.40
2018-08-16T22:28:08.377Z,3.70
2018-08-16T22:30:36.465Z,3.53
2018-08-16T22:33:04.569Z,3.60
2018-08-16T22:35:32.617Z,3.77
2018-08-16T22:38:00.690Z,3.57
2018-08-16T22:40:28.759Z,3.23
2018-08-16T22:42:56.809Z,3.47
2018-08-16T22:45:24.900Z,3.87
2018-08-16T22:47:52.991Z,3.73
2018-08-16T22:50:21.059Z,4.00
2018-08-16T22:52:49.135Z,4.33
2018-08-16T22:55:17.211Z,4.17
2018-08-16T22:57:45.307Z,3.90
2018-08-16T23:00:13.411Z,4.40
2018-08-16T23:02:42.047Z,3.47
2018-08-16T23:05:10.172Z,4.23
2018-08-16T23:07:38.233Z,3.70
2018-08-16T23:10:06.422Z,3.50
2018-08-16T23:12:34.506Z,3.57
2018-08-16T23:15:02.580Z,4.27
2018-08-16T23:17:30.647Z,3.57
2018-08-16T23:19:58.764Z,3.50
2018-08-16T23:22:26.816Z,3.43
2018-08-16T23:24:54.898Z,3.37
2018-08-16T23:27:22.967Z,3.47
2018-08-16T23:29:51.043Z,3.40
2018-08-16T23:32:19.143Z,3.70
2018-08-16T23:34:47.202Z,3.87
2018-08-16T23:37:15.293Z,4.10
2018-08-16T23:39:43.406Z,3.80
2018-08-16T23:42:11.476Z,3.97
2018-08-16T23:44:39.556Z,3.80
2018-08-16T23:47:07.631Z,3.20
2018-08-16T23:49:35.691Z,3.70
2018-08-16T23:52:03.773Z,3.77
2018-08-16T23:54:31.856Z,4.30
2018-08-16T23:56:59.917Z,3.60
2018-08-16T23:59:28.023Z,3.60
